sensor_id;sensor_type;location;lat;lon;timestamp;P1;durP1;ratioP1;P2;durP2;ratioP2
2177;SDS011;1095;50.992;6.798;2023-07-13T00:00:22;6.03;;;3.42;;
2177;SDS011;1095;50.992;6.798;2023-07-13T00:02:48;9.88;;;3.10;;
2177;SDS011;1095;50.992;6.798;2023-07-13T00:05:18;8.00;;;3.05;;
2177;SDS011;1095;50.992;6.798;2023-07-13T00:07:46;6.45;;;3.15;;
2177;SDS011;1095;50.992;6.798;2023-07-13T00:10:17;9.40;;;3.40;;
2177;SDS011;1095;50.992;6.798;2023-07-13T00:12:47;6.88;;;3.20;;
2177;SDS011;1095;50.992;6.798;2023-07-13T00:15:15;11.00;;;3.00;;
2177;SDS011;1095;50.992;6.798;2023-07-13T00:17:48;6.80;;;2.78;;
2177;SDS011;1095;50.992;6.798;2023-07-13T00:20:15;10.73;;;3.05;;
2177;SDS011;1095;50.992;6.798;2023-07-13T00:22:42;8.05;;;3.38;;
2177;SDS011;1095;50.992;6.798;2023-07-13T00:25:09;6.40;;;2.95;;
2177;SDS011;1095;50.992;6.798;2023-07-13T00:27:38;6.20;;;2.65;;
2177;SDS011;1095;50.992;6.798;2023-07-13T00:30:05;8.82;;;3.10;;
2177;SDS011;1095;50.992;6.798;2023-07-13T00:32:35;5.72;;;2.65;;
2177;SDS011;1095;50.992;6.798;2023-07-13T00:35:03;8.20;;;2.97;;
2177;SDS011;1095;50.992;6.798;2023-07-13T00:37:30;8.65;;;3.00;;
2177;SDS011;1095;50.992;6.798;2023-07-13T00:39:58;5.20;;;2.83;;
2177;SDS011;1095;50.992;6.798;2023-07-13T00:42:25;9.50;;;2.88;;
2177;SDS011;1095;50.992;6.798;2023-07-13T00:45:02;8.00;;;3.00;;
2177;SDS011;1095;50.992;6.798;2023-07-13T00:47:30;7.20;;;2.50;;
2177;SDS011;1095;50.992;6.798;2023-07-13T00:49:57;6.93;;;3.00;;
2177;SDS011;1095;50.992;6.798;2023-07-13T00:52:27;7.45;;;3.03;;
2177;SDS011;1095;50.992;6.798;2023-07-13T00:54:54;7.93;;;2.55;;
2177;SDS011;1095;50.992;6.798;2023-07-13T00:57:22;4.32;;;2.53;;
2177;SDS011;1095;50.992;6.798;2023-07-13T00:59:51;13.23;;;2.80;;
2177;SDS011;1095;50.992;6.798;2023-07-13T01:02:23;8.30;;;2.67;;
2177;SDS011;1095;50.992;6.798;2023-07-13T01:04:50;6.45;;;3.42;;
2177;SDS011;1095;50.992;6.798;2023-07-13T01:07:18;5.88;;;2.70;;
2177;SDS011;1095;50.992;6.798;2023-07-13T01:09:45;8.90;;;3.13;;
2177;SDS011;1095;50.992;6.798;2023-07-13T01:12:12;9.65;;;3.22;;
2177;SDS011;1095;50.992;6.798;2023-07-13T01:14:39;5.50;;;2.80;;
2177;SDS011;1095;50.992;6.798;2023-07-13T01:17:08;8.63;;;3.05;;
2177;SDS011;1095;50.992;6.798;2023-07-13T01:19:39;14.15;;;4.82;;
2177;SDS011;1095;50.992;6.798;2023-07-13T01:22:10;7.30;;;3.30;;
2177;SDS011;1095;50.992;6.798;2023-07-13T01:24:39;8.20;;;3.08;;
2177;SDS011;1095;50.992;6.798;2023-07-13T01:27:08;8.40;;;3.17;;
2177;SDS011;1095;50.992;6.798;2023-07-13T01:29:37;4.90;;;3.10;;
2177;SDS011;1095;50.992;6.798;2023-07-13T01:32:07;4.88;;;3.00;;
2177;SDS011;1095;50.992;6.798;2023-07-13T01:34:35;8.57;;;3.13;;
2177;SDS011;1095;50.992;6.798;2023-07-13T01:37:02;8.95;;;3.17;;
2177;SDS011;1095;50.992;6.798;2023-07-13T01:39:30;7.97;;;3.47;;
2177;SDS011;1095;50.992;6.798;2023-07-13T01:41:58;8.90;;;3.10;;
2177;SDS011;1095;50.992;6.798;2023-07-13T01:44:25;8.30;;;2.78;;
2177;SDS011;1095;50.992;6.798;2023-07-13T01:46:52;5.40;;;2.90;;
2177;SDS011;1095;50.992;6.798;2023-07-13T01:49:18;7.35;;;3.15;;
2177;SDS011;1095;50.992;6.798;2023-07-13T01:51:45;10.05;;;3.47;;
2177;SDS011;1095;50.992;6.798;2023-07-13T01:54:12;6.57;;;2.80;;
2177;SDS011;1095;50.992;6.798;2023-07-13T01:56:40;6.05;;;2.97;;
2177;SDS011;1095;50.992;6.798;2023-07-13T01:59:06;8.15;;;3.40;;
2177;SDS011;1095;50.992;6.798;2023-07-13T02:01:34;6.28;;;3.13;;
2177;SDS011;1095;50.992;6.798;2023-07-13T02:04:01;7.10;;;3.50;;
2177;SDS011;1095;50.992;6.798;2023-07-13T02:06:33;6.65;;;2.67;;
2177;SDS011;1095;50.992;6.798;2023-07-13T02:09:02;7.07;;;2.97;;
2177;SDS011;1095;50.992;6.798;2023-07-13T02:11:29;6.30;;;3.30;;
2177;SDS011;1095;50.992;6.798;2023-07-13T02:13:59;8.05;;;3.13;;
2177;SDS011;1095;50.992;6.798;2023-07-13T02:16:26;9.40;;;3.17;;
2177;SDS011;1095;50.992;6.798;2023-07-13T02:18:53;9.15;;;3.40;;
2177;SDS011;1095;50.992;6.798;2023-07-13T02:21:20;7.32;;;3.30;;
2177;SDS011;1095;50.992;6.798;2023-07-13T02:23:47;9.05;;;3.60;;
2177;SDS011;1095;50.992;6.798;2023-07-13T02:26:14;5.88;;;3.33;;
2177;SDS011;1095;50.992;6.798;2023-07-13T02:28:41;4.05;;;2.55;;
2177;SDS011;1095;50.992;6.798;2023-07-13T02:31:09;6.03;;;3.00;;
2177;SDS011;1095;50.992;6.798;2023-07-13T02:33:38;11.30;;;3.30;;
2177;SDS011;1095;50.992;6.798;2023-07-13T02:36:05;6.38;;;3.20;;
2177;SDS011;1095;50.992;6.798;2023-07-13T02:38:32;8.35;;;3.13;;
2177;SDS011;1095;50.992;6.798;2023-07-13T02:41:01;8.60;;;2.95;;
2177;SDS011;1095;50.992;6.798;2023-07-13T02:43:27;6.95;;;3.05;;
2177;SDS011;1095;50.992;6.798;2023-07-13T02:45:54;6.43;;;2.97;;
2177;SDS011;1095;50.992;6.798;2023-07-13T02:48:23;5.82;;;3.20;;
2177;SDS011;1095;50.992;6.798;2023-07-13T02:50:49;7.20;;;3.40;;
2177;SDS011;1095;50.992;6.798;2023-07-13T02:53:16;4.72;;;2.92;;
2177;SDS011;1095;50.992;6.798;2023-07-13T02:55:43;5.45;;;3.00;;
2177;SDS011;1095;50.992;6.798;2023-07-13T02:58:29;6.20;;;2.40;;
2177;SDS011;1095;50.992;6.798;2023-07-13T03:01:11;8.82;;;3.20;;
2177;SDS011;1095;50.992;6.798;2023-07-13T03:03:39;5.68;;;3.08;;
2177;SDS011;1095;50.992;6.798;2023-07-13T03:06:06;10.13;;;3.65;;
2177;SDS011;1095;50.992;6.798;2023-07-13T03:08:33;7.95;;;3.00;;
2177;SDS011;1095;50.992;6.798;2023-07-13T03:11:04;5.47;;;3.30;;
2177;SDS011;1095;50.992;6.798;2023-07-13T03:13:32;15.73;;;3.53;;
2177;SDS011;1095;50.992;6.798;2023-07-13T03:15:59;11.70;;;3.22;;
2177;SDS011;1095;50.992;6.798;2023-07-13T03:18:26;6.75;;;3.30;;
2177;SDS011;1095;50.992;6.798;2023-07-13T03:20:55;6.63;;;3.53;;
2177;SDS011;1095;50.992;6.798;2023-07-13T03:23:22;6.75;;;3.30;;
2177;SDS011;1095;50.992;6.798;2023-07-13T03:25:50;7.47;;;3.03;;
2177;SDS011;1095;50.992;6.798;2023-07-13T03:28:16;6.38;;;3.30;;
2177;SDS011;1095;50.992;6.798;2023-07-13T03:30:43;4.70;;;2.70;;
2177;SDS011;1095;50.992;6.798;2023-07-13T03:33:10;7.65;;;3.10;;
2177;SDS011;1095;50.992;6.798;2023-07-13T03:35:39;7.40;;;3.22;;
2177;SDS011;1095;50.992;6.798;2023-07-13T03:38:08;8.73;;;3.50;;
2177;SDS011;1095;50.992;6.798;2023-07-13T03:40:34;5.55;;;3.13;;
2177;SDS011;1095;50.992;6.798;2023-07-13T03:43:01;4.95;;;2.88;;
2177;SDS011;1095;50.992;6.798;2023-07-13T03:45:28;9.60;;;3.83;;
2177;SDS011;1095;50.992;6.798;2023-07-13T03:47:54;6.60;;;3.38;;
2177;SDS011;1095;50.992;6.798;2023-07-13T03:50:21;6.80;;;3.10;;
2177;SDS011;1095;50.992;6.798;2023-07-13T03:52:48;10.98;;;3.50;;
2177;SDS011;1095;50.992;6.798;2023-07-13T03:55:17;5.25;;;3.00;;
2177;SDS011;1095;50.992;6.798;2023-07-13T03:57:45;5.45;;;3.38;;
2177;SDS011;1095;50.992;6.798;2023-07-13T04:00:13;7.70;;;3.28;;
2177;SDS011;1095;50.992;6.798;2023-07-13T04:02:41;6.82;;;2.90;;
2177;SDS011;1095;50.992;6.798;2023-07-13T04:05:10;7.68;;;3.08;;
2177;SDS011;1095;50.992;6.798;2023-07-13T04:07:37;7.15;;;4.18;;
2177;SDS011;1095;50.992;6.798;2023-07-13T04:10:04;10.68;;;3.40;;
2177;SDS011;1095;50.992;6.798;2023-07-13T04:12:32;10.30;;;3.80;;
2177;SDS011;1095;50.992;6.798;2023-07-13T04:14:59;10.20;;;3.42;;
2177;SDS011;1095;50.992;6.798;2023-07-13T04:17:26;7.78;;;3.70;;
2177;SDS011;1095;50.992;6.798;2023-07-13T04:19:53;8.07;;;2.90;;
2177;SDS011;1095;50.992;6.798;2023-07-13T04:22:21;10.75;;;3.40;;
2177;SDS011;1095;50.992;6.798;2023-07-13T04:24:48;8.00;;;3.03;;
2177;SDS011;1095;50.992;6.798;2023-07-13T04:27:15;8.05;;;3.10;;
2177;SDS011;1095;50.992;6.798;2023-07-13T04:29:43;6.22;;;3.17;;
2177;SDS011;1095;50.992;6.798;2023-07-13T04:32:10;8.73;;;3.35;;
2177;SDS011;1095;50.992;6.798;2023-07-13T04:34:38;4.95;;;2.88;;
2177;SDS011;1095;50.992;6.798;2023-07-13T04:37:06;6.75;;;3.10;;
2177;SDS011;1095;50.992;6.798;2023-07-13T04:39:33;8.63;;;3.30;;
2177;SDS011;1095;50.992;6.798;2023-07-13T04:41:59;7.60;;;2.97;;
2177;SDS011;1095;50.992;6.798;2023-07-13T04:44:26;7.18;;;3.13;;
2177;SDS011;1095;50.992;6.798;2023-07-13T04:46:54;7.50;;;2.90;;
2177;SDS011;1095;50.992;6.798;2023-07-13T04:49:23;5.50;;;3.13;;
2177;SDS011;1095;50.992;6.798;2023-07-13T04:51:52;5.90;;;3.60;;
2177;SDS011;1095;50.992;6.798;2023-07-13T04:54:20;9.52;;;3.03;;
2177;SDS011;1095;50.992;6.798;2023-07-13T04:56:46;7.13;;;3.10;;
2177;SDS011;1095;50.992;6.798;2023-07-13T04:59:13;10.05;;;3.20;;
2177;SDS011;1095;50.992;6.798;2023-07-13T05:01:41;8.93;;;3.25;;
2177;SDS011;1095;50.992;6.798;2023-07-13T05:04:09;7.32;;;3.60;;
2177;SDS011;1095;50.992;6.798;2023-07-13T05:06:35;9.52;;;3.70;;
2177;SDS011;1095;50.992;6.798;2023-07-13T05:09:02;11.35;;;3.70;;
2177;SDS011;1095;50.992;6.798;2023-07-13T05:11:29;8.07;;;3.50;;
2177;SDS011;1095;50.992;6.798;2023-07-13T05:13:55;15.40;;;4.00;;
2177;SDS011;1095;50.992;6.798;2023-07-13T05:16:22;15.93;;;3.72;;
2177;SDS011;1095;50.992;6.798;2023-07-13T05:18:49;5.78;;;3.05;;
2177;SDS011;1095;50.992;6.798;2023-07-13T05:21:17;13.85;;;4.28;;
2177;SDS011;1095;50.992;6.798;2023-07-13T05:23:43;9.25;;;3.72;;
2177;SDS011;1095;50.992;6.798;2023-07-13T05:26:10;7.63;;;3.22;;
2177;SDS011;1095;50.992;6.798;2023-07-13T05:28:37;6.70;;;3.65;;
2177;SDS011;1095;50.992;6.798;2023-07-13T05:31:04;14.70;;;4.10;;
2177;SDS011;1095;50.992;6.798;2023-07-13T05:33:32;14.88;;;4.45;;
2177;SDS011;1095;50.992;6.798;2023-07-13T05:35:59;14.13;;;4.07;;
2177;SDS011;1095;50.992;6.798;2023-07-13T05:38:28;12.10;;;4.18;;
2177;SDS011;1095;50.992;6.798;2023-07-13T05:40:55;18.73;;;5.38;;
2177;SDS011;1095;50.992;6.798;2023-07-13T05:43:22;12.40;;;3.33;;
2177;SDS011;1095;50.992;6.798;2023-07-13T05:45:51;19.52;;;3.72;;
2177;SDS011;1095;50.992;6.798;2023-07-13T05:48:18;10.13;;;3.47;;
2177;SDS011;1095;50.992;6.798;2023-07-13T05:50:45;10.77;;;3.92;;
2177;SDS011;1095;50.992;6.798;2023-07-13T05:53:11;21.17;;;4.40;;
2177;SDS011;1095;50.992;6.798;2023-07-13T05:55:42;14.05;;;3.80;;
2177;SDS011;1095;50.992;6.798;2023-07-13T05:58:09;11.65;;;3.85;;
2177;SDS011;1095;50.992;6.798;2023-07-13T06:00:37;8.48;;;3.45;;
2177;SDS011;1095;50.992;6.798;2023-07-13T06:03:04;7.30;;;3.63;;
2177;SDS011;1095;50.992;6.798;2023-07-13T06:05:31;11.57;;;4.47;;
2177;SDS011;1095;50.992;6.798;2023-07-13T06:07:59;13.13;;;4.13;;
2177;SDS011;1095;50.992;6.798;2023-07-13T06:10:26;9.43;;;3.42;;
2177;SDS011;1095;50.992;6.798;2023-07-13T06:12:54;11.88;;;3.65;;
2177;SDS011;1095;50.992;6.798;2023-07-13T06:15:20;9.15;;;3.30;;
2177;SDS011;1095;50.992;6.798;2023-07-13T06:17:47;9.23;;;3.67;;
2177;SDS011;1095;50.992;6.798;2023-07-13T06:20:14;10.02;;;3.65;;
2177;SDS011;1095;50.992;6.798;2023-07-13T06:22:40;9.23;;;4.15;;
2177;SDS011;1095;50.992;6.798;2023-07-13T06:25:10;10.93;;;3.72;;
2177;SDS011;1095;50.992;6.798;2023-07-13T06:27:37;15.25;;;4.63;;
2177;SDS011;1095;50.992;6.798;2023-07-13T06:30:05;9.27;;;3.70;;
2177;SDS011;1095;50.992;6.798;2023-07-13T06:32:33;12.40;;;4.03;;
2177;SDS011;1095;50.992;6.798;2023-07-13T06:34:59;14.90;;;4.15;;
2177;SDS011;1095;50.992;6.798;2023-07-13T06:37:26;11.05;;;3.78;;
2177;SDS011;1095;50.992;6.798;2023-07-13T06:39:53;9.23;;;3.50;;
2177;SDS011;1095;50.992;6.798;2023-07-13T06:42:19;10.27;;;3.97;;
2177;SDS011;1095;50.992;6.798;2023-07-13T06:44:46;11.43;;;3.53;;
2177;SDS011;1095;50.992;6.798;2023-07-13T06:47:14;8.20;;;3.60;;
2177;SDS011;1095;50.992;6.798;2023-07-13T06:49:40;9.40;;;3.70;;
2177;SDS011;1095;50.992;6.798;2023-07-13T06:52:07;8.55;;;3.92;;
2177;SDS011;1095;50.992;6.798;2023-07-13T06:54:33;10.45;;;4.65;;
2177;SDS011;1095;50.992;6.798;2023-07-13T06:57:00;11.48;;;3.75;;
2177;SDS011;1095;50.992;6.798;2023-07-13T06:59:27;8.88;;;3.83;;
2177;SDS011;1095;50.992;6.798;2023-07-13T07:01:56;10.10;;;4.03;;
2177;SDS011;1095;50.992;6.798;2023-07-13T07:04:25;10.85;;;4.38;;
2177;SDS011;1095;50.992;6.798;2023-07-13T07:06:52;14.90;;;4.85;;
2177;SDS011;1095;50.992;6.798;2023-07-13T07:09:19;11.60;;;4.38;;
2177;SDS011;1095;50.992;6.798;2023-07-13T07:11:46;9.20;;;3.55;;
2177;SDS011;1095;50.992;6.798;2023-07-13T07:14:16;9.55;;;3.60;;
2177;SDS011;1095;50.992;6.798;2023-07-13T07:16:42;10.27;;;4.45;;
2177;SDS011;1095;50.992;6.798;2023-07-13T07:19:09;10.52;;;4.00;;
2177;SDS011;1095;50.992;6.798;2023-07-13T07:21:37;11.38;;;3.75;;
2177;SDS011;1095;50.992;6.798;2023-07-13T07:24:04;13.95;;;4.07;;
2177;SDS011;1095;50.992;6.798;2023-07-13T07:26:31;11.88;;;4.25;;
2177;SDS011;1095;50.992;6.798;2023-07-13T07:28:58;9.68;;;4.10;;
2177;SDS011;1095;50.992;6.798;2023-07-13T07:31:27;13.70;;;3.97;;
2177;SDS011;1095;50.992;6.798;2023-07-13T07:33:53;8.30;;;4.03;;
2177;SDS011;1095;50.992;6.798;2023-07-13T07:36:20;14.65;;;4.45;;
2177;SDS011;1095;50.992;6.798;2023-07-13T07:38:48;7.22;;;3.83;;
2177;SDS011;1095;50.992;6.798;2023-07-13T07:41:15;11.85;;;4.25;;
2177;SDS011;1095;50.992;6.798;2023-07-13T07:43:41;13.02;;;4.75;;
2177;SDS011;1095;50.992;6.798;2023-07-13T07:46:08;14.95;;;4.75;;
2177;SDS011;1095;50.992;6.798;2023-07-13T07:48:37;10.15;;;4.20;;
2177;SDS011;1095;50.992;6.798;2023-07-13T07:51:04;10.75;;;4.22;;
2177;SDS011;1095;50.992;6.798;2023-07-13T07:53:31;10.65;;;4.13;;
2177;SDS011;1095;50.992;6.798;2023-07-13T07:55:59;11.55;;;4.53;;
2177;SDS011;1095;50.992;6.798;2023-07-13T07:58:25;13.40;;;4.75;;
2177;SDS011;1095;50.992;6.798;2023-07-13T08:00:52;14.57;;;4.50;;
2177;SDS011;1095;50.992;6.798;2023-07-13T08:03:19;14.05;;;4.18;;
2177;SDS011;1095;50.992;6.798;2023-07-13T08:05:45;11.68;;;4.50;;
2177;SDS011;1095;50.992;6.798;2023-07-13T08:08:12;12.77;;;4.40;;
2177;SDS011;1095;50.992;6.798;2023-07-13T08:10:39;10.40;;;4.47;;
2177;SDS011;1095;50.992;6.798;2023-07-13T08:13:07;9.18;;;4.32;;
2177;SDS011;1095;50.992;6.798;2023-07-13T08:15:34;6.45;;;3.80;;
2177;SDS011;1095;50.992;6.798;2023-07-13T08:18:00;11.23;;;3.80;;
2177;SDS011;1095;50.992;6.798;2023-07-13T08:20:27;11.45;;;4.35;;
2177;SDS011;1095;50.992;6.798;2023-07-13T08:22:54;11.77;;;4.28;;
2177;SDS011;1095;50.992;6.798;2023-07-13T08:25:21;10.05;;;4.05;;
2177;SDS011;1095;50.992;6.798;2023-07-13T08:27:48;9.38;;;4.30;;
2177;SDS011;1095;50.992;6.798;2023-07-13T08:30:16;12.38;;;4.35;;
2177;SDS011;1095;50.992;6.798;2023-07-13T08:32:43;10.63;;;3.97;;
2177;SDS011;1095;50.992;6.798;2023-07-13T08:35:11;7.72;;;4.15;;
2177;SDS011;1095;50.992;6.798;2023-07-13T08:37:38;8.18;;;3.95;;
2177;SDS011;1095;50.992;6.798;2023-07-13T08:40:08;11.55;;;3.83;;
2177;SDS011;1095;50.992;6.798;2023-07-13T08:42:37;9.10;;;3.95;;
2177;SDS011;1095;50.992;6.798;2023-07-13T08:45:12;13.23;;;4.30;;
2177;SDS011;1095;50.992;6.798;2023-07-13T08:47:46;13.48;;;3.95;;
2177;SDS011;1095;50.992;6.798;2023-07-13T08:50:18;8.75;;;3.67;;
2177;SDS011;1095;50.992;6.798;2023-07-13T08:52:51;8.18;;;3.80;;
2177;SDS011;1095;50.992;6.798;2023-07-13T08:55:22;8.43;;;4.07;;
2177;SDS011;1095;50.992;6.798;2023-07-13T08:57:54;7.78;;;3.55;;
2177;SDS011;1095;50.992;6.798;2023-07-13T09:00:31;10.25;;;3.83;;
2177;SDS011;1095;50.992;6.798;2023-07-13T09:03:12;10.70;;;3.95;;
2177;SDS011;1095;50.992;6.798;2023-07-13T09:05:47;7.75;;;4.00;;
2177;SDS011;1095;50.992;6.798;2023-07-13T09:08:31;9.40;;;3.95;;
2177;SDS011;1095;50.992;6.798;2023-07-13T09:11:08;11.80;;;3.97;;
2177;SDS011;1095;50.992;6.798;2023-07-13T09:13:48;10.63;;;3.85;;
2177;SDS011;1095;50.992;6.798;2023-07-13T09:16:22;7.00;;;3.50;;
2177;SDS011;1095;50.992;6.798;2023-07-13T09:18:52;14.85;;;3.88;;
2177;SDS011;1095;50.992;6.798;2023-07-13T09:21:23;8.38;;;3.95;;
2177;SDS011;1095;50.992;6.798;2023-07-13T09:23:54;10.52;;;3.72;;
2177;SDS011;1095;50.992;6.798;2023-07-13T09:26:25;9.60;;;4.25;;
2177;SDS011;1095;50.992;6.798;2023-07-13T09:28:56;12.05;;;4.07;;
2177;SDS011;1095;50.992;6.798;2023-07-13T09:31:28;6.75;;;3.67;;
2177;SDS011;1095;50.992;6.798;2023-07-13T09:34:01;11.10;;;4.10;;
2177;SDS011;1095;50.992;6.798;2023-07-13T09:36:28;12.48;;;3.75;;
2177;SDS011;1095;50.992;6.798;2023-07-13T09:38:58;10.50;;;4.22;;
2177;SDS011;1095;50.992;6.798;2023-07-13T09:41:31;11.80;;;3.65;;
2177;SDS011;1095;50.992;6.798;2023-07-13T09:44:08;10.65;;;3.88;;
2177;SDS011;1095;50.992;6.798;2023-07-13T09:46:36;8.88;;;3.53;;
2177;SDS011;1095;50.992;6.798;2023-07-13T09:49:07;12.57;;;3.83;;
2177;SDS011;1095;50.992;6.798;2023-07-13T09:51:36;8.77;;;3.70;;
2177;SDS011;1095;50.992;6.798;2023-07-13T09:54:03;10.88;;;3.85;;
2177;SDS011;1095;50.992;6.798;2023-07-13T09:56:31;14.70;;;3.70;;
2177;SDS011;1095;50.992;6.798;2023-07-13T09:58:58;9.13;;;3.70;;
2177;SDS011;1095;50.992;6.798;2023-07-13T10:01:46;6.25;;;3.38;;
2177;SDS011;1095;50.992;6.798;2023-07-13T10:04:32;11.50;;;3.47;;
2177;SDS011;1095;50.992;6.798;2023-07-13T10:07:06;13.60;;;4.07;;
2177;SDS011;1095;50.992;6.798;2023-07-13T10:09:34;11.82;;;4.07;;
2177;SDS011;1095;50.992;6.798;2023-07-13T10:12:01;12.02;;;4.40;;
2177;SDS011;1095;50.992;6.798;2023-07-13T10:14:31;8.80;;;3.83;;
2177;SDS011;1095;50.992;6.798;2023-07-13T10:16:58;10.45;;;4.07;;
2177;SDS011;1095;50.992;6.798;2023-07-13T10:19:27;6.72;;;3.58;;
2177;SDS011;1095;50.992;6.798;2023-07-13T10:22:00;9.20;;;3.83;;
2177;SDS011;1095;50.992;6.798;2023-07-13T10:24:29;9.25;;;3.28;;
2177;SDS011;1095;50.992;6.798;2023-07-13T10:27:00;7.55;;;3.45;;
2177;SDS011;1095;50.992;6.798;2023-07-13T10:29:29;8.10;;;3.47;;
2177;SDS011;1095;50.992;6.798;2023-07-13T10:34:29;7.80;;;3.92;;
2177;SDS011;1095;50.992;6.798;2023-07-13T10:36:56;6.82;;;3.30;;
2177;SDS011;1095;50.992;6.798;2023-07-13T10:39:26;8.25;;;4.07;;
2177;SDS011;1095;50.992;6.798;2023-07-13T10:41:54;7.30;;;3.50;;
2177;SDS011;1095;50.992;6.798;2023-07-13T10:44:26;6.30;;;3.30;;
2177;SDS011;1095;50.992;6.798;2023-07-13T10:46:57;10.57;;;3.15;;
2177;SDS011;1095;50.992;6.798;2023-07-13T10:49:26;11.93;;;4.20;;
2177;SDS011;1095;50.992;6.798;2023-07-13T10:51:55;9.30;;;3.80;;
2177;SDS011;1095;50.992;6.798;2023-07-13T10:54:22;8.48;;;3.83;;
2177;SDS011;1095;50.992;6.798;2023-07-13T10:57:14;7.90;;;3.55;;
2177;SDS011;1095;50.992;6.798;2023-07-13T10:59:45;5.43;;;3.53;;
2177;SDS011;1095;50.992;6.798;2023-07-13T11:02:25;5.85;;;3.22;;
2177;SDS011;1095;50.992;6.798;2023-07-13T11:04:52;7.60;;;3.47;;
2177;SDS011;1095;50.992;6.798;2023-07-13T11:07:21;15.02;;;3.50;;
2177;SDS011;1095;50.992;6.798;2023-07-13T11:09:51;7.07;;;3.10;;
2177;SDS011;1095;50.992;6.798;2023-07-13T11:12:26;8.13;;;4.00;;
2177;SDS011;1095;50.992;6.798;2023-07-13T11:15:10;5.63;;;3.47;;
2177;SDS011;1095;50.992;6.798;2023-07-13T11:17:48;6.60;;;3.50;;
2177;SDS011;1095;50.992;6.798;2023-07-13T11:20:23;7.45;;;3.67;;
2177;SDS011;1095;50.992;6.798;2023-07-13T11:25:56;7.22;;;3.42;;
2177;SDS011;1095;50.992;6.798;2023-07-13T11:28:25;9.85;;;3.70;;
2177;SDS011;1095;50.992;6.798;2023-07-13T11:31:00;12.60;;;3.72;;
2177;SDS011;1095;50.992;6.798;2023-07-13T11:33:51;8.25;;;3.33;;
2177;SDS011;1095;50.992;6.798;2023-07-13T11:36:20;7.80;;;3.65;;
2177;SDS011;1095;50.992;6.798;2023-07-13T11:38:51;12.00;;;4.20;;
2177;SDS011;1095;50.992;6.798;2023-07-13T11:41:27;7.75;;;3.63;;
2177;SDS011;1095;50.992;6.798;2023-07-13T11:44:01;9.43;;;3.65;;
2177;SDS011;1095;50.992;6.798;2023-07-13T11:46:32;8.15;;;3.80;;
2177;SDS011;1095;50.992;6.798;2023-07-13T11:48:59;8.75;;;3.95;;
2177;SDS011;1095;50.992;6.798;2023-07-13T11:51:26;9.63;;;3.92;;
2177;SDS011;1095;50.992;6.798;2023-07-13T11:53:57;12.30;;;4.03;;
2177;SDS011;1095;50.992;6.798;2023-07-13T11:56:30;8.82;;;3.60;;
2177;SDS011;1095;50.992;6.798;2023-07-13T11:59:03;9.13;;;3.80;;
2177;SDS011;1095;50.992;6.798;2023-07-13T12:01:32;6.35;;;3.85;;
2177;SDS011;1095;50.992;6.798;2023-07-13T12:04:00;7.05;;;3.20;;
2177;SDS011;1095;50.992;6.798;2023-07-13T12:06:29;5.80;;;3.30;;
2177;SDS011;1095;50.992;6.798;2023-07-13T12:08:58;11.30;;;3.60;;
2177;SDS011;1095;50.992;6.798;2023-07-13T12:11:26;7.93;;;3.42;;
2177;SDS011;1095;50.992;6.798;2023-07-13T12:13:55;10.45;;;3.70;;
2177;SDS011;1095;50.992;6.798;2023-07-13T12:16:25;7.97;;;3.20;;
2177;SDS011;1095;50.992;6.798;2023-07-13T12:18:53;9.65;;;3.88;;
2177;SDS011;1095;50.992;6.798;2023-07-13T12:21:22;9.68;;;3.30;;
2177;SDS011;1095;50.992;6.798;2023-07-13T12:23:55;9.05;;;2.80;;
2177;SDS011;1095;50.992;6.798;2023-07-13T12:26:22;10.68;;;3.00;;
2177;SDS011;1095;50.992;6.798;2023-07-13T12:28:51;9.70;;;3.33;;
2177;SDS011;1095;50.992;6.798;2023-07-13T12:31:29;6.53;;;2.97;;
2177;SDS011;1095;50.992;6.798;2023-07-13T12:33:58;6.18;;;3.17;;
2177;SDS011;1095;50.992;6.798;2023-07-13T12:36:25;6.40;;;3.00;;
2177;SDS011;1095;50.992;6.798;2023-07-13T12:38:54;5.47;;;3.25;;
2177;SDS011;1095;50.992;6.798;2023-07-13T12:41:21;9.88;;;2.78;;
2177;SDS011;1095;50.992;6.798;2023-07-13T12:43:48;14.75;;;3.38;;
2177;SDS011;1095;50.992;6.798;2023-07-13T12:46:17;6.93;;;3.22;;
2177;SDS011;1095;50.992;6.798;2023-07-13T12:48:49;12.60;;;4.72;;
2177;SDS011;1095;50.992;6.798;2023-07-13T12:51:21;9.77;;;3.33;;
2177;SDS011;1095;50.992;6.798;2023-07-13T12:53:49;12.20;;;3.35;;
2177;SDS011;1095;50.992;6.798;2023-07-13T12:56:22;10.82;;;3.20;;
2177;SDS011;1095;50.992;6.798;2023-07-13T12:58:55;7.25;;;3.08;;
2177;SDS011;1095;50.992;6.798;2023-07-13T13:01:25;9.60;;;2.90;;
2177;SDS011;1095;50.992;6.798;2023-07-13T13:03:54;5.32;;;2.92;;
2177;SDS011;1095;50.992;6.798;2023-07-13T13:06:29;5.75;;;2.80;;
2177;SDS011;1095;50.992;6.798;2023-07-13T13:08:56;9.48;;;3.70;;
2177;SDS011;1095;50.992;6.798;2023-07-13T13:11:25;7.43;;;3.13;;
2177;SDS011;1095;50.992;6.798;2023-07-13T13:13:53;9.55;;;3.50;;
2177;SDS011;1095;50.992;6.798;2023-07-13T13:16:21;9.07;;;3.08;;
2177;SDS011;1095;50.992;6.798;2023-07-13T13:18:55;10.48;;;2.70;;
2177;SDS011;1095;50.992;6.798;2023-07-13T13:21:23;13.52;;;3.40;;
2177;SDS011;1095;50.992;6.798;2023-07-13T13:23:51;7.63;;;2.72;;
2177;SDS011;1095;50.992;6.798;2023-07-13T13:26:18;5.40;;;2.40;;
2177;SDS011;1095;50.992;6.798;2023-07-13T13:28:46;9.02;;;3.30;;
2177;SDS011;1095;50.992;6.798;2023-07-13T13:31:13;8.73;;;3.33;;
2177;SDS011;1095;50.992;6.798;2023-07-13T13:33:40;10.52;;;3.30;;
2177;SDS011;1095;50.992;6.798;2023-07-13T13:36:18;7.43;;;3.30;;
2177;SDS011;1095;50.992;6.798;2023-07-13T13:38:46;7.03;;;3.10;;
2177;SDS011;1095;50.992;6.798;2023-07-13T13:41:13;6.82;;;3.10;;
2177;SDS011;1095;50.992;6.798;2023-07-13T13:43:41;5.30;;;2.72;;
2177;SDS011;1095;50.992;6.798;2023-07-13T13:46:12;14.52;;;3.38;;
2177;SDS011;1095;50.992;6.798;2023-07-13T13:48:41;5.57;;;2.85;;
2177;SDS011;1095;50.992;6.798;2023-07-13T13:51:12;5.28;;;2.97;;
2177;SDS011;1095;50.992;6.798;2023-07-13T13:53:42;9.27;;;2.90;;
2177;SDS011;1095;50.992;6.798;2023-07-13T13:56:10;4.40;;;2.85;;
2177;SDS011;1095;50.992;6.798;2023-07-13T13:58:40;7.03;;;2.90;;
2177;SDS011;1095;50.992;6.798;2023-07-13T14:01:11;7.07;;;2.65;;
2177;SDS011;1095;50.992;6.798;2023-07-13T14:06:11;4.57;;;2.40;;
2177;SDS011;1095;50.992;6.798;2023-07-13T14:08:39;6.68;;;2.65;;
2177;SDS011;1095;50.992;6.798;2023-07-13T14:11:07;8.57;;;2.78;;
2177;SDS011;1095;50.992;6.798;2023-07-13T14:13:38;5.13;;;2.70;;
2177;SDS011;1095;50.992;6.798;2023-07-13T14:16:09;5.95;;;3.08;;
2177;SDS011;1095;50.992;6.798;2023-07-13T14:18:37;3.83;;;2.60;;
2177;SDS011;1095;50.992;6.798;2023-07-13T14:21:08;5.15;;;2.83;;
2177;SDS011;1095;50.992;6.798;2023-07-13T14:23:37;8.50;;;3.00;;
2177;SDS011;1095;50.992;6.798;2023-07-13T14:26:07;6.93;;;3.00;;
2177;SDS011;1095;50.992;6.798;2023-07-13T14:28:38;5.60;;;2.80;;
2177;SDS011;1095;50.992;6.798;2023-07-13T14:31:08;9.20;;;3.35;;
2177;SDS011;1095;50.992;6.798;2023-07-13T14:33:35;6.00;;;3.03;;
2177;SDS011;1095;50.992;6.798;2023-07-13T14:36:02;6.68;;;3.05;;
2177;SDS011;1095;50.992;6.798;2023-07-13T14:38:29;4.45;;;2.60;;
2177;SDS011;1095;50.992;6.798;2023-07-13T14:40:55;6.00;;;3.05;;
2177;SDS011;1095;50.992;6.798;2023-07-13T14:43:23;5.88;;;3.10;;
2177;SDS011;1095;50.992;6.798;2023-07-13T14:45:53;4.70;;;2.97;;
2177;SDS011;1095;50.992;6.798;2023-07-13T14:48:21;5.38;;;3.05;;
2177;SDS011;1095;50.992;6.798;2023-07-13T14:50:50;4.78;;;3.05;;
2177;SDS011;1095;50.992;6.798;2023-07-13T14:53:21;10.40;;;3.40;;
2177;SDS011;1095;50.992;6.798;2023-07-13T14:55:48;6.78;;;3.08;;
2177;SDS011;1095;50.992;6.798;2023-07-13T14:58:14;7.93;;;3.15;;
2177;SDS011;1095;50.992;6.798;2023-07-13T15:00:42;7.97;;;3.03;;
2177;SDS011;1095;50.992;6.798;2023-07-13T15:03:14;6.25;;;2.75;;
2177;SDS011;1095;50.992;6.798;2023-07-13T15:05:52;11.98;;;3.00;;
2177;SDS011;1095;50.992;6.798;2023-07-13T15:08:19;5.70;;;3.00;;
2177;SDS011;1095;50.992;6.798;2023-07-13T15:10:46;8.88;;;3.20;;
2177;SDS011;1095;50.992;6.798;2023-07-13T15:13:14;8.07;;;3.45;;
2177;SDS011;1095;50.992;6.798;2023-07-13T15:15:45;7.40;;;3.22;;
2177;SDS011;1095;50.992;6.798;2023-07-13T15:18:14;7.88;;;3.40;;
2177;SDS011;1095;50.992;6.798;2023-07-13T15:20:43;6.10;;;3.30;;
2177;SDS011;1095;50.992;6.798;2023-07-13T15:23:11;13.93;;;3.30;;
2177;SDS011;1095;50.992;6.798;2023-07-13T15:25:38;7.78;;;3.40;;
2177;SDS011;1095;50.992;6.798;2023-07-13T15:28:05;7.15;;;3.25;;